Time;durP1;ratioP1;P1;durP2;ratioP2;P2;SDS_P1;SDS_P2;PMS_P1;PMS_P2;Temp;Humidity;BMP_temperature;BMP_pressure;BME280_temperature;BME280_humidity;BME280_pressure;Samples;Min_cycle;Max_cycle;Signal;HPM_P1;HPM_P2
2021/12/21 00:01:24;;;;;;;33.10;13.30;;;-2.50;99.90;;;;;;5089893;28;20097;-74
2021/12/21 00:03:52;;;;;;;38.07;12.87;;;-2.50;99.90;;;;;;5089543;28;20105;-73
2021/12/21 00:06:19;;;;;;;29.43;13.07;;;-2.60;99.90;;;;;;5089243;28;20084;-73
2021/12/21 00:08:46;;;;;;;29.47;12.00;;;-2.70;99.90;;;;;;5090101;28;20098;-74
2021/12/21 00:11:13;;;;;;;38.73;14.33;;;-2.70;99.90;;;;;;5089808;28;20114;-72
2021/12/21 00:13:57;;;;;;;31.33;12.97;;;-2.70;99.90;;;;;;5089805;28;20113;-73
2021/12/21 00:19:26;;;;;;;29.42;11.50;;;-2.70;99.90;;;;;;5084180;28;20040;-72
2021/12/21 00:21:59;;;;;;;33.33;13.73;;;-2.80;99.90;;;;;;5089892;28;20074;-73
2021/12/21 00:24:31;;;;;;;28.47;12.87;;;-2.80;99.90;;;;;;5089658;28;20078;-74
2021/12/21 00:27:00;;;;;;;32.10;13.77;;;-2.70;99.90;;;;;;5089215;28;20139;-72
2021/12/21 00:29:27;;;;;;;35.40;13.70;;;-2.80;99.90;;;;;;5089578;28;20055;-74
2021/12/21 00:31:54;;;;;;;33.73;13.60;;;-2.90;99.90;;;;;;5089513;28;20056;-72
2021/12/21 00:34:22;;;;;;;30.87;13.63;;;-2.80;99.90;;;;;;5089424;28;20102;-73
2021/12/21 00:36:49;;;;;;;39.17;14.67;;;-2.80;99.90;;;;;;5088528;28;20055;-72
2021/12/21 00:39:16;;;;;;;29.23;13.20;;;-2.80;99.90;;;;;;5089100;28;20052;-73
2021/12/21 00:41:43;;;;;;;34.13;14.90;;;-2.90;99.90;;;;;;5089393;28;20044;-73
2021/12/21 00:44:11;;;;;;;35.93;14.53;;;-2.90;99.90;;;;;;5031199;28;1151655;-74
2021/12/21 00:46:39;;;;;;;35.07;13.77;;;-2.90;99.90;;;;;;5089493;28;20048;-72
2021/12/21 00:49:14;;;;;;;34.83;15.27;;;-2.80;99.90;;;;;;5090234;28;20416;-73
2021/12/21 00:51:43;;;;;;;38.17;14.47;;;-2.90;99.90;;;;;;5089574;28;20044;-73
2021/12/21 00:54:10;;;;;;;28.43;13.67;;;-2.90;99.90;;;;;;5089904;28;20105;-73
2021/12/21 00:56:37;;;;;;;33.30;14.00;;;-2.90;99.90;;;;;;5089231;28;20555;-74
2021/12/21 00:59:05;;;;;;;33.00;15.00;;;-3.00;99.90;;;;;;5090012;28;20051;-73
2021/12/21 01:01:34;;;;;;;36.53;16.03;;;-3.00;99.90;;;;;;5090431;28;20101;-73
2021/12/21 01:04:03;;;;;;;30.30;13.57;;;-2.90;99.90;;;;;;5089681;28;20051;-72
2021/12/21 01:06:41;;;;;;;32.57;13.60;;;-3.00;99.90;;;;;;5089175;28;20056;-73
2021/12/21 01:09:16;;;;;;;28.80;13.50;;;-2.90;99.90;;;;;;5089904;28;20415;-73
2021/12/21 01:11:48;;;;;;;33.70;14.18;;;-3.00;99.90;;;;;;5089815;28;20040;-73
2021/12/21 01:14:49;;;;;;;38.50;13.50;;;-2.90;99.90;;;;;;5089466;28;20095;-71
2021/12/21 01:17:21;;;;;;;38.50;13.70;;;-2.90;99.90;;;;;;5089370;28;20412;-73
2021/12/21 01:19:58;;;;;;;28.73;12.70;;;-3.00;99.90;;;;;;5089329;28;20052;-72
2021/12/21 01:22:41;;;;;;;40.57;13.70;;;-3.00;99.90;;;;;;5089478;28;20495;-73
2021/12/21 01:25:21;;;;;;;30.20;12.73;;;-3.00;99.90;;;;;;5089152;28;20411;-75
2021/12/21 01:27:57;;;;;;;35.50;13.90;;;-3.00;99.90;;;;;;5089793;28;20059;-74
2021/12/21 01:30:36;;;;;;;30.05;13.13;;;-3.00;99.90;;;;;;5089742;28;20400;-73
2021/12/21 01:33:17;;;;;;;37.97;13.77;;;-3.00;99.90;;;;;;5089325;28;20048;-73
2021/12/21 01:35:48;;;;;;;32.70;14.13;;;-3.10;99.90;;;;;;5088402;28;20044;-73
2021/12/21 01:38:24;;;;;;;36.50;12.73;;;-3.00;99.90;;;;;;5089478;28;20048;-74
2021/12/21 01:40:58;;;;;;;40.83;13.98;;;-3.10;99.90;;;;;;5089342;28;20063;-73
2021/12/21 01:43:32;;;;;;;32.67;13.13;;;-3.10;99.90;;;;;;5089633;28;20268;-76
2021/12/21 01:51:43;;;;;;;40.13;13.53;;;-3.00;99.90;;;;;;5007325;28;20442;-73
2021/12/21 01:54:10;;;;;;;30.60;12.70;;;-3.00;99.90;;;;;;5054533;28;20056;-73
2021/12/21 01:56:39;;;;;;;31.93;13.67;;;-3.00;99.90;;;;;;5091701;28;20044;-73
2021/12/21 01:59:06;;;;;;;31.07;12.60;;;-3.00;99.90;;;;;;5093485;28;20419;-73
2021/12/21 02:01:33;;;;;;;32.77;13.07;;;-3.10;99.90;;;;;;5093160;28;20048;-74
2021/12/21 02:04:00;;;;;;;31.87;12.30;;;-3.10;99.90;;;;;;5093455;28;20059;-72
2021/12/21 02:06:29;;;;;;;31.63;12.30;;;-3.20;99.90;;;;;;5092444;28;20052;-73
2021/12/21 02:08:57;;;;;;;28.00;11.57;;;-3.20;99.90;;;;;;5092989;28;20048;-73
2021/12/21 02:11:24;;;;;;;36.10;14.47;;;-3.20;99.90;;;;;;5093129;28;20075;-74
2021/12/21 02:13:53;;;;;;;26.33;11.60;;;-3.20;99.90;;;;;;5093275;28;20141;-73
2021/12/21 02:16:26;;;;;;;32.97;12.17;;;-3.20;99.90;;;;;;5092766;28;20048;-72
2021/12/21 02:18:59;;;;;;;30.20;11.67;;;-3.20;99.90;;;;;;5093113;28;20079;-73
2021/12/21 02:21:32;;;;;;;27.47;11.27;;;-3.20;99.90;;;;;;5092651;28;20055;-73
2021/12/21 02:24:04;;;;;;;31.87;12.37;;;-3.20;99.90;;;;;;5092725;28;20443;-73
2021/12/21 02:26:43;;;;;;;26.80;11.10;;;-3.30;99.90;;;;;;5092184;28;20056;-74
2021/12/21 02:29:14;;;;;;;30.33;11.40;;;-3.20;99.90;;;;;;5093171;28;20060;-74
2021/12/21 02:31:43;;;;;;;28.00;11.90;;;-3.20;99.90;;;;;;5092366;28;20051;-73
2021/12/21 02:34:11;;;;;;;29.33;11.60;;;-3.30;99.90;;;;;;5092388;28;20106;-73
2021/12/21 02:36:41;;;;;;;29.30;11.53;;;-3.30;99.90;;;;;;5091813;28;20479;-73
2021/12/21 02:39:08;;;;;;;21.60;10.80;;;-3.20;99.90;;;;;;5092630;28;20259;-74
2021/12/21 02:41:36;;;;;;;30.00;12.60;;;-3.20;99.90;;;;;;5092445;28;20048;-74
2021/12/21 02:44:04;;;;;;;25.00;10.87;;;-3.30;99.90;;;;;;5092259;28;20110;-73
2021/12/21 02:46:31;;;;;;;29.60;11.63;;;-3.30;99.90;;;;;;5091724;28;20082;-73
2021/12/21 02:48:58;;;;;;;27.53;11.50;;;-3.30;99.90;;;;;;5092450;28;20083;-74
2021/12/21 02:51:26;;;;;;;24.73;10.50;;;-3.20;99.90;;;;;;5092289;28;20131;-72
2021/12/21 02:53:54;;;;;;;28.97;11.53;;;-3.30;99.90;;;;;;5092490;28;20071;-74
2021/12/21 02:56:21;;;;;;;29.10;11.93;;;-3.30;99.90;;;;;;5091503;28;20102;-73
2021/12/21 02:58:48;;;;;;;27.03;11.80;;;-3.20;99.90;;;;;;5092261;28;20047;-74
2021/12/21 03:01:15;;;;;;;34.47;12.33;;;-3.20;99.90;;;;;;5092164;28;20098;-74
2021/12/21 03:03:42;;;;;;;68.47;16.80;;;-3.10;99.90;;;;;;5092081;28;20080;-73
2021/12/21 03:06:16;;;;;;;42.10;12.97;;;-3.00;99.90;;;;;;5090849;28;20041;-74
2021/12/21 03:08:55;;;;;;;142.03;21.70;;;-2.90;99.90;;;;;;5092166;28;20051;-73
2021/12/21 03:11:36;;;;;;;133.17;18.03;;;-3.00;99.90;;;;;;5091786;28;20462;-74
2021/12/21 03:14:05;;;;;;;90.30;19.60;;;-2.90;99.90;;;;;;5092107;28;20380;-73
2021/12/21 03:16:33;;;;;;;72.90;16.93;;;-2.80;99.90;;;;;;5091051;28;20582;-73
2021/12/21 03:19:00;;;;;;;63.77;16.13;;;-2.70;99.90;;;;;;5091856;28;20087;-74
2021/12/21 03:21:28;;;;;;;54.27;14.63;;;-2.70;99.90;;;;;;5091796;28;20071;-74
2021/12/21 03:23:56;;;;;;;49.63;15.13;;;-2.60;99.90;;;;;;5091375;28;20048;-74
2021/12/21 03:26:25;;;;;;;65.57;16.80;;;-2.70;99.90;;;;;;5091282;28;20392;-74
2021/12/21 03:28:52;;;;;;;89.47;19.13;;;-2.60;99.90;;;;;;5091710;28;20484;-73
2021/12/21 03:31:19;;;;;;;165.47;23.17;;;-2.70;99.90;;;;;;5091697;28;20349;-73
2021/12/21 03:33:47;;;;;;;90.07;17.63;;;-2.60;99.90;;;;;;5091499;28;20056;-74
2021/12/21 03:36:16;;;;;;;109.87;20.17;;;-2.70;99.90;;;;;;5090522;28;20076;-74
2021/12/21 03:38:48;;;;;;;60.20;16.20;;;-2.70;99.90;;;;;;5091848;28;20048;-74
2021/12/21 03:41:17;;;;;;;40.97;14.27;;;-2.80;99.90;;;;;;5091737;28;20480;-73
2021/12/21 03:43:45;;;;;;;46.90;13.43;;;-2.80;99.90;;;;;;5091150;28;20040;-74
2021/12/21 03:46:15;;;;;;;44.07;14.27;;;-2.80;99.90;;;;;;5090846;28;20098;-73
2021/12/21 03:48:45;;;;;;;39.17;13.30;;;-2.80;99.90;;;;;;5091179;28;20142;-73
2021/12/21 03:51:13;;;;;;;34.90;13.57;;;-2.80;99.90;;;;;;5091316;28;20134;-75
2021/12/21 03:53:40;;;;;;;32.30;13.70;;;-2.80;99.90;;;;;;5091155;28;20446;-74
2021/12/21 03:56:25;;;;;;;38.57;13.63;;;-2.80;99.90;;;;;;5090270;28;20777;-74
2021/12/21 03:58:54;;;;;;;35.97;12.77;;;-2.80;99.90;;;;;;5091305;28;20051;-75
2021/12/21 04:01:21;;;;;;;45.50;15.07;;;-2.90;99.90;;;;;;5090646;28;20048;-73
2021/12/21 04:03:48;;;;;;;29.43;12.33;;;-3.00;99.90;;;;;;5090939;28;20047;-74
2021/12/21 04:06:15;;;;;;;33.13;12.20;;;-3.10;99.90;;;;;;5090072;28;20071;-74
2021/12/21 04:08:42;;;;;;;30.23;12.23;;;-3.10;99.90;;;;;;5091244;28;20358;-74
2021/12/21 04:11:09;;;;;;;23.00;10.87;;;-3.10;99.90;;;;;;5091076;28;20051;-75
2021/12/21 04:13:36;;;;;;;27.37;10.43;;;-3.10;99.90;;;;;;5091149;28;20145;-73
2021/12/21 04:16:06;;;;;;;26.83;11.03;;;-3.10;99.90;;;;;;5089610;28;20164;-74
2021/12/21 04:18:36;;;;;;;23.33;10.37;;;-3.20;99.90;;;;;;5090238;28;20048;-74
2021/12/21 04:21:03;;;;;;;32.63;10.63;;;-3.20;99.90;;;;;;5090746;28;20063;-74
2021/12/21 04:23:31;;;;;;;24.53;10.73;;;-3.20;99.90;;;;;;5090573;28;20055;-74
2021/12/21 04:25:58;;;;;;;28.37;11.00;;;-3.20;99.90;;;;;;5089651;28;20056;-74
2021/12/21 04:28:25;;;;;;;24.63;10.80;;;-3.30;99.90;;;;;;5090229;28;20052;-73
2021/12/21 04:30:52;;;;;;;20.13;8.70;;;-3.30;99.90;;;;;;5090415;28;20565;-73
2021/12/21 04:33:20;;;;;;;20.90;10.33;;;-3.30;99.90;;;;;;5090541;28;20470;-75
2021/12/21 04:35:47;;;;;;;22.30;9.17;;;-3.30;99.90;;;;;;5089409;28;20048;-75
2021/12/21 04:38:21;;;;;;;23.93;9.53;;;-3.40;99.90;;;;;;5090570;28;20448;-74
2021/12/21 04:40:53;;;;;;;21.10;9.07;;;-3.30;99.90;;;;;;5090290;28;20410;-73
2021/12/21 04:43:20;;;;;;;28.87;10.70;;;-3.40;99.90;;;;;;5090156;28;20110;-74
2021/12/21 04:45:47;;;;;;;29.33;9.53;;;-3.40;99.90;;;;;;5089120;28;20515;-74
2021/12/21 04:48:14;;;;;;;23.33;9.53;;;-3.50;99.90;;;;;;5090239;28;20500;-74
2021/12/21 04:50:44;;;;;;;22.13;9.63;;;-3.50;99.90;;;;;;5090350;28;20114;-74
2021/12/21 04:53:11;;;;;;;22.87;10.63;;;-3.40;99.90;;;;;;5090174;28;20060;-74
2021/12/21 04:55:38;;;;;;;27.63;9.93;;;-3.40;99.90;;;;;;5089112;28;20531;-75
2021/12/21 04:58:09;;;;;;;25.67;10.33;;;-3.50;99.90;;;;;;5090084;28;20098;-74
2021/12/21 05:00:37;;;;;;;26.33;10.60;;;-3.40;99.90;;;;;;5089702;28;20052;-74
2021/12/21 05:03:04;;;;;;;27.13;10.30;;;-3.40;99.90;;;;;;5089749;28;20047;-74
2021/12/21 05:05:32;;;;;;;25.20;10.17;;;-3.40;99.90;;;;;;5089348;28;20051;-74
2021/12/21 05:08:08;;;;;;;29.83;10.93;;;-3.40;99.90;;;;;;5089735;28;20087;-74
2021/12/21 05:10:37;;;;;;;39.72;11.35;;;-3.40;99.90;;;;;;5090047;28;20058;-74
2021/12/21 05:13:04;;;;;;;28.87;11.70;;;-3.40;99.90;;;;;;5089701;28;20134;-75
2021/12/21 05:15:31;;;;;;;26.20;11.00;;;-3.30;99.90;;;;;;5088656;28;20415;-74
2021/12/21 05:17:58;;;;;;;40.83;13.77;;;-3.40;99.90;;;;;;5089659;28;20040;-74
2021/12/21 05:20:25;;;;;;;29.07;10.87;;;-3.40;99.90;;;;;;5089304;28;20055;-75
2021/12/21 05:22:52;;;;;;;26.33;10.57;;;-3.40;99.90;;;;;;5089462;28;20098;-74
2021/12/21 05:25:21;;;;;;;37.43;12.67;;;-3.50;99.90;;;;;;5089090;28;20055;-74
2021/12/21 05:27:48;;;;;;;30.40;11.90;;;-3.40;99.90;;;;;;5089526;28;20087;-75
2021/12/21 05:30:15;;;;;;;37.37;12.93;;;-3.30;99.90;;;;;;5089033;28;20044;-74
2021/12/21 05:32:42;;;;;;;37.57;12.33;;;-3.30;99.90;;;;;;5089537;28;20052;-74
2021/12/21 05:35:10;;;;;;;29.73;10.93;;;-3.40;99.90;;;;;;5088424;28;20102;-74
2021/12/21 05:37:39;;;;;;;38.60;12.17;;;-3.50;99.90;;;;;;5089454;28;20056;-74
2021/12/21 05:40:13;;;;;;;28.20;11.83;;;-3.50;99.90;;;;;;5089618;28;20047;-75
2021/12/21 05:42:42;;;;;;;27.80;11.00;;;-3.40;99.90;;;;;;5089320;28;20074;-74
2021/12/21 05:45:11;;;;;;;21.63;10.10;;;-3.50;99.90;;;;;;5088526;28;20553;-74
2021/12/21 05:47:38;;;;;;;34.23;11.90;;;-3.60;99.90;;;;;;5089050;28;20493;-74
2021/12/21 05:50:09;;;;;;;25.93;10.93;;;-3.60;99.90;;;;;;5089330;28;20420;-74
2021/12/21 05:52:36;;;;;;;34.67;11.07;;;-3.60;99.90;;;;;;5089217;28;20488;-75
2021/12/21 05:55:04;;;;;;;37.80;12.90;;;-3.60;99.90;;;;;;5088486;28;20048;-74
2021/12/21 05:57:31;;;;;;;36.57;13.37;;;-3.70;99.90;;;;;;5089086;28;20076;-75
2021/12/21 05:59:59;;;;;;;44.23;13.37;;;-3.70;99.90;;;;;;5088922;28;20082;-75
2021/12/21 06:02:26;;;;;;;45.80;12.47;;;-3.80;99.90;;;;;;5089053;28;20071;-74
2021/12/21 06:04:53;;;;;;;39.13;13.20;;;-3.80;99.90;;;;;;5088875;28;20044;-75
2021/12/21 06:07:20;;;;;;;55.57;13.23;;;-3.90;99.90;;;;;;5089038;28;20075;-75
2021/12/21 06:09:48;;;;;;;41.30;13.70;;;-3.90;99.90;;;;;;5089198;28;20253;-74
2021/12/21 06:12:27;;;;;;;47.60;12.73;;;-3.90;99.90;;;;;;5089167;28;20450;-75
2021/12/21 06:23:29;;;;;;;110.50;17.00;;;-3.70;99.90;;;;;;5088828;28;20058;-75
2021/12/21 06:25:58;;;;;;;144.97;21.50;;;-3.80;99.90;;;;;;5088389;28;20063;-75
2021/12/21 06:28:26;;;;;;;135.73;20.57;;;-3.80;99.90;;;;;;5088944;28;20048;-74
2021/12/21 06:30:53;;;;;;;82.17;17.97;;;-3.80;99.90;;;;;;5088906;28;20048;-75
2021/12/21 06:33:22;;;;;;;110.97;18.20;;;-3.90;99.90;;;;;;5088529;28;20055;-75
2021/12/21 06:35:49;;;;;;;114.27;18.13;;;-4.00;99.90;;;;;;5088046;28;20459;-75
2021/12/21 06:38:16;;;;;;;125.53;19.10;;;-4.10;99.90;;;;;;5088787;28;20048;-75
2021/12/21 06:40:44;;;;;;;102.07;16.80;;;-4.20;99.90;;;;;;5088888;28;20051;-75
2021/12/21 06:43:14;;;;;;;68.00;15.37;;;-4.20;99.90;;;;;;5091832;28;20078;-75
2021/12/21 06:45:50;;;;;;;54.03;16.77;;;-4.20;99.90;;;;;;5091744;28;20052;-75
2021/12/21 06:51:15;;;;;;;48.80;16.23;;;-4.30;99.90;;;;;;5092722;28;20156;-75
2021/12/21 06:53:44;;;;;;;56.47;15.50;;;-4.20;99.90;;;;;;5092750;28;20079;-74
2021/12/21 06:56:11;;;;;;;34.00;14.43;;;-4.20;99.90;;;;;;5092011;28;20251;-75
2021/12/21 06:58:38;;;;;;;33.93;13.53;;;-4.20;99.90;;;;;;5092545;28;20975;-75
2021/12/21 07:01:07;;;;;;;31.30;13.83;;;-4.20;99.90;;;;;;5092587;28;20071;-74
2021/12/21 07:03:34;;;;;;;35.03;13.17;;;-4.00;99.90;;;;;;5092205;28;20043;-75
2021/12/21 07:06:05;;;;;;;29.27;11.67;;;-4.00;99.90;;;;;;5091520;28;20088;-75
2021/12/21 07:08:37;;;;;;;25.17;12.10;;;-4.00;99.90;;;;;;5092319;28;20110;-73
2021/12/21 07:11:15;;;;;;;29.43;11.27;;;-4.10;99.90;;;;;;5092114;28;20044;-74
2021/12/21 07:19:12;;;;;;;34.17;11.67;;;-4.00;99.90;;;;;;5091766;28;20051;-74
2021/12/21 07:21:40;;;;;;;31.10;10.50;;;-4.00;99.90;;;;;;5091827;28;20415;-74
2021/12/21 07:24:08;;;;;;;25.30;11.90;;;-4.10;99.90;;;;;;5091491;28;20101;-74
2021/12/21 07:26:35;;;;;;;27.03;10.93;;;-4.00;99.90;;;;;;5090937;28;20052;-75
2021/12/21 07:29:02;;;;;;;29.00;11.50;;;-3.90;99.90;;;;;;5092045;28;20118;-75
2021/12/21 07:31:29;;;;;;;32.50;11.37;;;-4.00;99.90;;;;;;5091874;28;20094;-76
2021/12/21 07:33:58;;;;;;;29.63;11.40;;;-4.00;99.90;;;;;;5091132;28;20417;-74
2021/12/21 07:36:25;;;;;;;30.43;11.63;;;-4.00;99.90;;;;;;5091537;28;20143;-74
2021/12/21 07:38:53;;;;;;;26.90;10.33;;;-4.00;99.90;;;;;;5091621;28;20063;-74
2021/12/21 07:41:21;;;;;;;29.67;11.33;;;-3.90;99.90;;;;;;5091253;28;20047;-74
2021/12/21 07:43:48;;;;;;;27.27;11.97;;;-3.90;99.90;;;;;;5091177;28;20142;-74
2021/12/21 07:46:15;;;;;;;27.90;12.03;;;-3.80;99.90;;;;;;5090401;28;20052;-74
2021/12/21 07:48:43;;;;;;;24.33;11.20;;;-3.80;99.90;;;;;;5091860;28;20102;-74
2021/12/21 07:51:10;;;;;;;34.33;12.33;;;-3.80;99.90;;;;;;5091497;28;20044;-75
2021/12/21 07:53:38;;;;;;;28.53;10.87;;;-3.70;99.90;;;;;;5089932;28;20225;-76
2021/12/21 07:56:07;;;;;;;25.30;10.50;;;-3.60;99.90;;;;;;5090478;28;20056;-74
2021/12/21 07:58:35;;;;;;;22.53;10.27;;;-3.50;99.90;;;;;;5091042;28;20044;-75
2021/12/21 08:01:04;;;;;;;27.03;11.13;;;-3.50;99.90;;;;;;5090666;28;20171;-75
2021/12/21 08:03:32;;;;;;;24.10;11.57;;;-3.50;99.90;;;;;;5090876;28;20044;-75
2021/12/21 08:06:00;;;;;;;26.53;10.87;;;-3.40;99.90;;;;;;5090826;28;20083;-75
2021/12/21 08:08:29;;;;;;;28.07;11.40;;;-3.50;99.90;;;;;;5090919;28;20097;-76
2021/12/21 08:11:10;;;;;;;28.47;10.43;;;-3.40;99.90;;;;;;5090993;28;20061;-75
2021/12/21 08:13:40;;;;;;;22.57;10.00;;;-3.30;99.90;;;;;;5091084;28;20084;-76
2021/12/21 08:16:07;;;;;;;25.00;11.23;;;-3.30;99.90;;;;;;5089801;28;20098;-74
2021/12/21 08:18:35;;;;;;;24.33;10.13;;;-3.20;99.90;;;;;;5090712;28;20488;-74
2021/12/21 08:21:02;;;;;;;28.97;10.07;;;-3.20;99.90;;;;;;5090677;28;20471;-74
2021/12/21 08:23:29;;;;;;;24.37;10.27;;;-3.20;99.90;;;;;;5090499;28;20126;-75
2021/12/21 08:25:57;;;;;;;22.23;9.67;;;-3.20;99.90;;;;;;5089395;28;20503;-76
2021/12/21 08:28:24;;;;;;;26.43;10.37;;;-3.00;99.90;;;;;;5090586;28;20146;-75
2021/12/21 08:30:53;;;;;;;25.97;10.70;;;-2.90;99.90;;;;;;5090445;28;20055;-76
2021/12/21 08:33:20;;;;;;;24.30;10.33;;;-2.90;99.90;;;;;;5090122;28;20542;-76
2021/12/21 08:35:47;;;;;;;28.20;11.10;;;-2.80;99.90;;;;;;5089793;28;20143;-77
2021/12/21 08:38:16;;;;;;;21.13;10.20;;;-2.80;99.90;;;;;;5090373;28;20110;-76
2021/12/21 08:40:48;;;;;;;24.03;10.00;;;-2.70;99.90;;;;;;5090318;28;20091;-76
2021/12/21 08:43:18;;;;;;;23.53;9.17;;;-2.60;99.90;;;;;;5090129;28;20055;-76
2021/12/21 08:45:48;;;;;;;25.00;10.13;;;-2.50;99.90;;;;;;5089292;28;20094;-75
2021/12/21 08:48:17;;;;;;;21.03;9.97;;;-2.50;99.90;;;;;;5090722;28;20130;-76
2021/12/21 08:50:45;;;;;;;27.30;10.00;;;-2.40;99.90;;;;;;5090129;28;20043;-75
2021/12/21 08:53:14;;;;;;;20.50;10.10;;;-2.30;99.90;;;;;;5090130;28;20504;-76
2021/12/21 08:55:41;;;;;;;29.50;10.80;;;-2.10;99.90;;;;;;5089352;28;20044;-75
2021/12/21 08:58:09;;;;;;;25.90;10.47;;;-2.00;99.90;;;;;;5089901;28;20044;-76
2021/12/21 09:00:36;;;;;;;20.37;9.57;;;-1.80;99.90;;;;;;5089995;28;20076;-76
2021/12/21 09:03:03;;;;;;;21.57;10.17;;;-1.70;99.90;;;;;;5090188;28;20054;-75
2021/12/21 09:05:32;;;;;;;21.17;9.57;;;-1.40;99.90;;;;;;5088608;28;20098;-76
2021/12/21 09:08:00;;;;;;;20.80;9.00;;;-0.30;99.90;;;;;;5090062;28;20044;-75
2021/12/21 09:10:28;;;;;;;22.83;9.30;;;0.40;99.90;;;;;;5089666;28;20121;-76
2021/12/21 09:12:56;;;;;;;18.83;8.30;;;0.80;99.90;;;;;;5089481;28;20101;-75
2021/12/21 09:15:24;;;;;;;17.57;8.03;;;2.20;99.90;;;;;;5091309;28;20056;-75
2021/12/21 09:17:52;;;;;;;17.57;8.13;;;3.70;99.90;;;;;;5098550;28;20102;-75
2021/12/21 09:20:21;;;;;;;14.73;8.13;;;4.80;99.90;;;;;;5098028;28;20073;-74
2021/12/21 09:22:50;;;;;;;17.30;6.90;;;5.00;99.90;;;;;;5098212;28;20504;-75
2021/12/21 09:25:18;;;;;;;17.93;8.60;;;5.40;99.90;;;;;;5092907;28;20055;-75
2021/12/21 09:27:46;;;;;;;20.03;7.43;;;5.90;99.90;;;;;;5092427;28;20048;-75
2021/12/21 09:30:15;;;;;;;15.60;7.45;;;4.80;99.90;;;;;;5091327;28;20052;-76
2021/12/21 09:32:42;;;;;;;17.83;7.07;;;7.70;99.90;;;;;;5091386;28;20424;-74
2021/12/21 09:35:10;;;;;;;15.80;6.50;;;9.00;99.90;;;;;;5090489;28;20055;-74
2021/12/21 09:37:38;;;;;;;12.27;6.72;;;9.60;99.90;;;;;;5091397;28;20101;-75
2021/12/21 09:40:09;;;;;;;17.42;7.10;;;10.20;99.90;;;;;;5089784;28;20055;-74
2021/12/21 09:42:36;;;;;;;15.85;6.78;;;11.70;99.90;;;;;;5089282;28;20492;-74
2021/12/21 09:45:04;;;;;;;12.75;7.60;;;11.50;99.90;;;;;;5088674;28;20048;-71
2021/12/21 09:47:33;;;;;;;14.02;7.25;;;12.40;99.90;;;;;;5089360;28;20409;-71
2021/12/21 09:50:01;;;;;;;15.68;7.30;;;12.70;99.90;;;;;;5089512;28;20062;-72
2021/12/21 09:52:30;;;;;;;12.50;6.80;;;12.60;99.90;;;;;;5088693;28;20052;-71
2021/12/21 09:54:58;;;;;;;18.80;7.53;;;12.40;99.90;;;;;;5088689;28;20584;-72
2021/12/21 09:57:27;;;;;;;11.27;6.75;;;13.40;99.40;;;;;;5088916;28;20084;-71
2021/12/21 09:59:54;;;;;;;14.07;7.72;;;14.00;99.70;;;;;;5089006;28;20084;-71
2021/12/21 10:02:26;;;;;;;13.32;7.32;;;14.70;98.10;;;;;;5089062;28;20074;-72
2021/12/21 10:04:55;;;;;;;16.42;7.50;;;16.10;96.80;;;;;;5088297;28;20586;-72
2021/12/21 10:07:23;;;;;;;15.98;7.63;;;17.30;95.30;;;;;;5089983;28;20075;-72
2021/12/21 10:09:52;;;;;;;13.25;7.78;;;17.20;94.60;;;;;;5092968;28;20048;-71
2021/12/21 10:12:29;;;;;;;16.77;8.70;;;17.10;94.50;;;;;;5094772;28;20067;-71
2021/12/21 10:15:04;;;;;;;;;;;18.00;94.80;;;;;;5095697;28;20044;-72
2021/12/21 10:17:33;;;;;;;13.95;7.57;;;18.50;94.00;;;;;;5093250;28;19920;-71
2021/12/21 10:20:01;;;;;;;15.15;8.27;;;18.90;93.30;;;;;;5094839;28;20052;-72
2021/12/21 10:22:28;;;;;;;13.65;7.60;;;18.50;93.30;;;;;;5094636;28;20054;-71
2021/12/21 10:24:56;;;;;;;13.23;7.03;;;18.90;92.90;;;;;;5092685;28;20106;-71
2021/12/21 10:27:25;;;;;;;12.50;7.15;;;18.10;93.10;;;;;;5092512;28;20157;-72
2021/12/21 10:29:55;;;;;;;15.85;7.60;;;18.00;93.30;;;;;;5092388;28;20052;-72
2021/12/21 10:32:25;;;;;;;15.68;8.13;;;17.70;93.40;;;;;;5092967;28;20114;-71
2021/12/21 10:34:54;;;;;;;13.32;7.57;;;17.10;94.20;;;;;;5091551;28;20051;-72
2021/12/21 10:37:25;;;;;;;15.52;8.30;;;16.40;94.60;;;;;;5092291;28;20318;-72
2021/12/21 10:40:08;;;;;;;14.30;7.60;;;16.20;95.00;;;;;;5093189;28;20047;-72
2021/12/21 10:42:45;;;;;;;13.23;7.70;;;15.50;95.50;;;;;;5092035;28;20044;-72
2021/12/21 10:45:14;;;;;;;14.80;7.80;;;15.60;95.90;;;;;;5091600;28;20519;-72
2021/12/21 10:47:44;;;;;;;16.20;8.73;;;15.40;94.90;;;;;;5092311;28;20492;-72
2021/12/21 10:50:12;;;;;;;19.80;8.05;;;14.10;96.10;;;;;;5092527;28;20488;-72
2021/12/21 10:52:41;;;;;;;14.02;7.60;;;13.50;97.10;;;;;;5092609;28;20048;-72
2021/12/21 10:55:09;;;;;;;13.30;7.10;;;15.30;95.50;;;;;;5091400;28;20135;-72
2021/12/21 10:57:36;;;;;;;13.68;7.03;;;15.80;94.90;;;;;;5092094;28;20047;-72
2021/12/21 11:00:08;;;;;;;13.15;7.30;;;16.80;94.60;;;;;;5092367;28;20056;-72
2021/12/21 11:02:36;;;;;;;17.98;8.20;;;16.30;94.30;;;;;;5091988;28;20052;-72
2021/12/21 11:05:06;;;;;;;12.95;7.20;;;16.60;94.60;;;;;;5091278;28;20492;-72
2021/12/21 11:07:40;;;;;;;16.77;7.05;;;16.10;94.50;;;;;;5091554;28;20055;-72
2021/12/21 11:10:12;;;;;;;12.55;6.47;;;16.60;94.60;;;;;;5092246;28;20056;-73
2021/12/21 11:12:45;;;;;;;13.35;6.70;;;16.50;94.80;;;;;;5091891;28;20056;-72
2021/12/21 11:15:14;;;;;;;14.23;6.72;;;16.80;93.70;;;;;;5090935;28;20512;-72
2021/12/21 11:17:43;;;;;;;11.77;6.50;;;16.30;93.70;;;;;;5091533;28;20048;-72
2021/12/21 11:20:12;;;;;;;13.73;7.57;;;16.70;94.60;;;;;;5091581;28;20048;-72
2021/12/21 11:22:41;;;;;;;12.68;6.55;;;17.20;94.10;;;;;;5091388;28;20083;-72
2021/12/21 11:25:11;;;;;;;14.10;7.57;;;16.60;94.50;;;;;;5090855;28;20409;-72
2021/12/21 11:27:41;;;;;;;12.35;7.50;;;17.30;94.40;;;;;;5091091;28;20401;-72
2021/12/21 11:30:10;;;;;;;16.10;7.65;;;17.50;93.60;;;;;;5091272;28;20090;-72
2021/12/21 11:32:43;;;;;;;14.52;8.07;;;16.90;94.00;;;;;;5091123;28;20048;-72
2021/12/21 11:37:58;;;;;;;13.30;7.05;;;16.00;94.80;;;;;;5091174;28;20055;-72
2021/12/21 11:40:29;;;;;;;14.07;7.40;;;14.50;95.20;;;;;;5091972;28;20052;-72
2021/12/21 11:43:08;;;;;;;16.98;8.73;;;13.90;96.70;;;;;;5090775;28;20044;-72
2021/12/21 11:45:41;;;;;;;15.52;8.30;;;13.30;97.90;;;;;;5090784;28;20089;-72
2021/12/21 11:48:16;;;;;;;15.73;8.57;;;13.00;98.70;;;;;;5091209;28;20082;-72
2021/12/21 11:50:47;;;;;;;15.30;7.82;;;13.10;98.20;;;;;;5090899;28;20048;-72
2021/12/21 11:53:17;;;;;;;12.05;7.32;;;13.10;98.20;;;;;;5090598;28;20048;-72
2021/12/21 11:55:48;;;;;;;20.20;8.75;;;12.20;97.50;;;;;;5090442;28;20053;-72
2021/12/21 11:58:18;;;;;;;16.38;8.07;;;12.80;98.70;;;;;;5090856;28;20052;-72
2021/12/21 12:00:52;;;;;;;13.65;7.97;;;12.30;99.10;;;;;;5090674;28;20048;-72
2021/12/21 12:03:22;;;;;;;14.80;8.93;;;11.10;99.40;;;;;;5090785;28;20052;-72
2021/12/21 12:05:58;;;;;;;18.00;8.73;;;11.70;99.90;;;;;;5089876;28;20048;-71
2021/12/21 12:08:27;;;;;;;18.75;8.45;;;10.70;99.90;;;;;;5090716;28;20094;-72
2021/12/21 12:10:57;;;;;;;14.68;8.18;;;9.90;99.90;;;;;;5090729;28;20059;-72
2021/12/21 12:13:31;;;;;;;22.27;9.48;;;9.60;99.90;;;;;;5090403;28;20500;-71
2021/12/21 12:16:00;;;;;;;21.00;9.25;;;9.00;99.90;;;;;;5089945;28;20051;-71
2021/12/21 12:18:32;;;;;;;20.90;9.02;;;8.60;99.90;;;;;;5090464;28;20105;-71
2021/12/21 12:21:12;;;;;;;21.58;8.60;;;8.90;99.90;;;;;;5090392;28;20056;-73
2021/12/21 12:23:47;;;;;;;21.52;9.77;;;9.20;99.90;;;;;;5090365;28;20417;-72
2021/12/21 12:26:26;;;;;;;16.25;7.70;;;9.30;99.90;;;;;;5089491;28;20047;-72
2021/12/21 12:28:54;;;;;;;12.05;7.28;;;10.00;99.90;;;;;;5090089;28;20094;-72
2021/12/21 12:31:33;;;;;;;12.35;6.50;;;11.40;99.90;;;;;;5090350;28;20044;-72
2021/12/21 12:34:01;;;;;;;13.00;6.47;;;12.30;99.60;;;;;;5090062;28;20048;-72
2021/12/21 12:36:47;;;;;;;14.48;7.32;;;12.40;99.90;;;;;;5089805;28;20071;-72
2021/12/21 12:39:32;;;;;;;18.08;7.20;;;12.80;99.30;;;;;;5089358;28;20511;-72
2021/12/21 12:42:05;;;;;;;18.60;7.10;;;12.50;98.10;;;;;;5089943;28;20106;-72
2021/12/21 12:44:33;;;;;;;13.90;6.95;;;13.00;99.00;;;;;;5089826;28;20048;-72
2021/12/21 12:47:04;;;;;;;12.88;6.90;;;13.20;98.60;;;;;;5089368;28;20052;-72
2021/12/21 12:49:36;;;;;;;16.00;6.82;;;12.50;98.20;;;;;;5089604;28;20052;-72
2021/12/21 12:52:11;;;;;;;14.25;6.72;;;12.60;99.30;;;;;;5089831;28;20047;-72
2021/12/21 12:54:47;;;;;;;13.30;7.20;;;12.90;99.10;;;;;;5089745;28;20138;-72
2021/12/21 12:57:28;;;;;;;13.57;7.05;;;13.00;98.50;;;;;;5089502;28;20090;-72
2021/12/21 12:59:58;;;;;;;12.55;6.85;;;12.70;99.10;;;;;;5089488;28;20110;-72
2021/12/21 13:02:26;;;;;;;17.55;6.78;;;13.00;99.40;;;;;;5089389;28;20084;-72
2021/12/21 13:04:53;;;;;;;14.60;6.80;;;12.50;99.20;;;;;;5088741;28;20138;-72
2021/12/21 13:07:28;;;;;;;13.35;7.03;;;12.50;98.20;;;;;;5089385;28;20058;-72
2021/12/21 13:10:07;;;;;;;16.15;6.75;;;12.20;99.30;;;;;;5089278;28;20385;-72
2021/12/21 13:12:34;;;;;;;15.20;7.50;;;10.40;99.90;;;;;;5089155;28;20512;-72